sensor_id;sensor_type;location;lat;lon;timestamp;pressure;altitude;pressure_sealevel;temperature
60615;BMP280;46444;45.590;5.284;2023-02-27T00:02:18;97905.69;;;4.59
60615;BMP280;46444;45.590;5.284;2023-02-27T00:05:17;97914.09;;;4.56
60615;BMP280;46444;45.590;5.284;2023-02-27T00:08:50;97911.06;;;4.53
60615;BMP280;46444;45.590;5.284;2023-02-27T00:11:27;97919.97;;;4.58
60615;BMP280;46444;45.590;5.284;2023-02-27T00:14:27;97919.53;;;4.61
60615;BMP280;46444;45.590;5.284;2023-02-27T00:24:10;97937.91;;;4.56
60615;BMP280;46444;45.590;5.284;2023-02-27T00:30:43;97939.56;;;4.51
60615;BMP280;46444;45.590;5.284;2023-02-27T00:45:04;97952.16;;;4.55
60615;BMP280;46444;45.590;5.284;2023-02-27T01:02:06;97958.03;;;4.57
60615;BMP280;46444;45.590;5.284;2023-02-27T01:04:47;97960.09;;;4.55
60615;BMP280;46444;45.590;5.284;2023-02-27T01:07:45;97966.25;;;4.49
60615;BMP280;46444;45.590;5.284;2023-02-27T01:11:08;97965.84;;;4.46
60615;BMP280;46444;45.590;5.284;2023-02-27T01:14:48;97976.31;;;4.41
60615;BMP280;46444;45.590;5.284;2023-02-27T01:21:25;97975.84;;;4.44
60615;BMP280;46444;45.590;5.284;2023-02-27T01:28:25;97985.59;;;4.43
60615;BMP280;46444;45.590;5.284;2023-02-27T01:52:16;97986.25;;;4.39
60615;BMP280;46444;45.590;5.284;2023-02-27T01:54:47;97998.47;;;4.15
60615;BMP280;46444;45.590;5.284;2023-02-27T01:57:34;97993.25;;;4.33
60615;BMP280;46444;45.590;5.284;2023-02-27T02:00:39;98004.03;;;4.32
60615;BMP280;46444;45.590;5.284;2023-02-27T02:03:56;98005.53;;;4.46
60615;BMP280;46444;45.590;5.284;2023-02-27T02:06:36;98017.47;;;4.30
60615;BMP280;46444;45.590;5.284;2023-02-27T02:09:09;98020.22;;;4.17
60615;BMP280;46444;45.590;5.284;2023-02-27T02:12:06;98014.22;;;4.28
60615;BMP280;46444;45.590;5.284;2023-02-27T02:14:45;98019.34;;;4.23
60615;BMP280;46444;45.590;5.284;2023-02-27T02:17:56;98017.09;;;4.27
60615;BMP280;46444;45.590;5.284;2023-02-27T02:31:19;98010.50;;;4.11
60615;BMP280;46444;45.590;5.284;2023-02-27T02:39:57;98020.47;;;4.09
60615;BMP280;46444;45.590;5.284;2023-02-27T02:48:01;98027.94;;;3.88
60615;BMP280;46444;45.590;5.284;2023-02-27T02:50:47;98037.66;;;3.94
60615;BMP280;46444;45.590;5.284;2023-02-27T02:56:06;98038.63;;;3.99
60615;BMP280;46444;45.590;5.284;2023-02-27T02:58:45;98040.91;;;3.89
60615;BMP280;46444;45.590;5.284;2023-02-27T03:01:48;98047.06;;;3.83
60615;BMP280;46444;45.590;5.284;2023-02-27T03:04:28;98046.19;;;3.96
60615;BMP280;46444;45.590;5.284;2023-02-27T03:07:55;98039.66;;;3.98
60615;BMP280;46444;45.590;5.284;2023-02-27T03:10:25;98050.72;;;3.82
60615;BMP280;46444;45.590;5.284;2023-02-27T03:13:16;98049.69;;;3.83
60615;BMP280;46444;45.590;5.284;2023-02-27T03:15:59;98059.66;;;3.88
60615;BMP280;46444;45.590;5.284;2023-02-27T03:18:41;98063.28;;;3.93
60615;BMP280;46444;45.590;5.284;2023-02-27T03:21:14;98072.53;;;3.71
60615;BMP280;46444;45.590;5.284;2023-02-27T03:23:48;98061.09;;;3.84
60615;BMP280;46444;45.590;5.284;2023-02-27T03:26:32;98078.34;;;3.86
60615;BMP280;46444;45.590;5.284;2023-02-27T03:29:32;98072.03;;;3.87
60615;BMP280;46444;45.590;5.284;2023-02-27T03:33:11;98078.75;;;3.83
60615;BMP280;46444;45.590;5.284;2023-02-27T03:39:24;98097.19;;;3.59
60615;BMP280;46444;45.590;5.284;2023-02-27T03:44:54;98102.06;;;3.55
60615;BMP280;46444;45.590;5.284;2023-02-27T03:47:23;98103.69;;;3.56
60615;BMP280;46444;45.590;5.284;2023-02-27T03:49:49;98113.47;;;3.49
60615;BMP280;46444;45.590;5.284;2023-02-27T03:52:19;98127.28;;;3.51
60615;BMP280;46444;45.590;5.284;2023-02-27T03:54:55;98125.47;;;3.39
60615;BMP280;46444;45.590;5.284;2023-02-27T03:57:39;98131.22;;;3.23
60615;BMP280;46444;45.590;5.284;2023-02-27T04:00:28;98135.84;;;3.34
60615;BMP280;46444;45.590;5.284;2023-02-27T04:02:57;98127.31;;;3.32
60615;BMP280;46444;45.590;5.284;2023-02-27T04:05:30;98140.34;;;3.20
60615;BMP280;46444;45.590;5.284;2023-02-27T04:16:43;98158.00;;;3.26
60615;BMP280;46444;45.590;5.284;2023-02-27T04:22:24;98170.38;;;3.26
60615;BMP280;46444;45.590;5.284;2023-02-27T04:25:23;98172.84;;;3.14
60615;BMP280;46444;45.590;5.284;2023-02-27T04:28:16;98161.84;;;3.17
60615;BMP280;46444;45.590;5.284;2023-02-27T04:30:47;98176.72;;;2.99
60615;BMP280;46444;45.590;5.284;2023-02-27T04:36:03;98182.59;;;3.07
60615;BMP280;46444;45.590;5.284;2023-02-27T04:38:38;98192.13;;;2.95
60615;BMP280;46444;45.590;5.284;2023-02-27T04:41:41;98185.81;;;3.22
60615;BMP280;46444;45.590;5.284;2023-02-27T04:44:09;98193.75;;;3.16
60615;BMP280;46444;45.590;5.284;2023-02-27T04:46:39;98191.72;;;3.11
60615;BMP280;46444;45.590;5.284;2023-02-27T04:49:15;98197.38;;;2.82
60615;BMP280;46444;45.590;5.284;2023-02-27T04:54:58;98204.69;;;2.67
60615;BMP280;46444;45.590;5.284;2023-02-27T04:57:40;98212.00;;;2.72
60615;BMP280;46444;45.590;5.284;2023-02-27T05:00:09;98214.03;;;2.83
60615;BMP280;46444;45.590;5.284;2023-02-27T05:02:41;98222.72;;;2.57
60615;BMP280;46444;45.590;5.284;2023-02-27T05:05:13;98211.00;;;2.86
60615;BMP280;46444;45.590;5.284;2023-02-27T05:07:45;98221.56;;;3.05
60615;BMP280;46444;45.590;5.284;2023-02-27T05:10:39;98235.34;;;2.75
60615;BMP280;46444;45.590;5.284;2023-02-27T05:13:14;98230.09;;;3.07
60615;BMP280;46444;45.590;5.284;2023-02-27T05:15:51;98245.09;;;2.81
60615;BMP280;46444;45.590;5.284;2023-02-27T05:18:18;98236.97;;;2.89
60615;BMP280;46444;45.590;5.284;2023-02-27T05:21:15;98249.94;;;2.84
60615;BMP280;46444;45.590;5.284;2023-02-27T05:28:59;98261.56;;;2.89
60615;BMP280;46444;45.590;5.284;2023-02-27T05:31:34;98260.28;;;2.72
60615;BMP280;46444;45.590;5.284;2023-02-27T05:37:11;98269.41;;;2.76
60615;BMP280;46444;45.590;5.284;2023-02-27T05:39:39;98275.94;;;2.80
60615;BMP280;46444;45.590;5.284;2023-02-27T05:42:10;98272.91;;;2.83
60615;BMP280;46444;45.590;5.284;2023-02-27T05:44:42;98276.97;;;2.92
60615;BMP280;46444;45.590;5.284;2023-02-27T05:47:16;98271.50;;;2.94
60615;BMP280;46444;45.590;5.284;2023-02-27T05:52:11;98293.22;;;2.89
60615;BMP280;46444;45.590;5.284;2023-02-27T05:55:00;98291.13;;;2.65
60615;BMP280;46444;45.590;5.284;2023-02-27T05:57:32;98292.09;;;2.58
60615;BMP280;46444;45.590;5.284;2023-02-27T06:02:48;98302.19;;;2.48
60615;BMP280;46444;45.590;5.284;2023-02-27T06:05:15;98304.25;;;2.52
60615;BMP280;46444;45.590;5.284;2023-02-27T06:07:41;98305.28;;;2.58
60615;BMP280;46444;45.590;5.284;2023-02-27T06:10:10;98316.44;;;2.53
60615;BMP280;46444;45.590;5.284;2023-02-27T06:12:36;98317.22;;;2.47
60615;BMP280;46444;45.590;5.284;2023-02-27T06:15:03;98320.31;;;2.64
60615;BMP280;46444;45.590;5.284;2023-02-27T06:17:32;98335.78;;;2.73
60615;BMP280;46444;45.590;5.284;2023-02-27T06:22:58;98339.38;;;2.59
60615;BMP280;46444;45.590;5.284;2023-02-27T06:25:45;98340.75;;;2.49
60615;BMP280;46444;45.590;5.284;2023-02-27T06:30:51;98350.09;;;2.51
60615;BMP280;46444;45.590;5.284;2023-02-27T06:33:17;98355.66;;;2.29
60615;BMP280;46444;45.590;5.284;2023-02-27T06:35:42;98367.53;;;2.52
60615;BMP280;46444;45.590;5.284;2023-02-27T06:38:08;98369.69;;;2.36
60615;BMP280;46444;45.590;5.284;2023-02-27T06:40:33;98368.41;;;2.59
60615;BMP280;46444;45.590;5.284;2023-02-27T06:42:58;98372.63;;;2.54
60615;BMP280;46444;45.590;5.284;2023-02-27T06:45:24;98378.84;;;2.46
60615;BMP280;46444;45.590;5.284;2023-02-27T06:47:49;98395.44;;;2.40
60615;BMP280;46444;45.590;5.284;2023-02-27T17:59:09;98792.13;;;6.72
60615;BMP280;46444;45.590;5.284;2023-02-27T18:01:35;98793.81;;;6.67
60615;BMP280;46444;45.590;5.284;2023-02-27T18:26:24;98834.44;;;6.67
60615;BMP280;46444;45.590;5.284;2023-02-27T18:29:02;98834.50;;;6.54
60615;BMP280;46444;45.590;5.284;2023-02-27T19:16:09;98881.31;;;6.29
60615;BMP280;46444;45.590;5.284;2023-02-27T19:18:34;98876.84;;;6.23
60615;BMP280;46444;45.590;5.284;2023-02-27T19:21:03;98876.88;;;5.91
60615;BMP280;46444;45.590;5.284;2023-02-27T19:23:30;98877.84;;;6.16
60615;BMP280;46444;45.590;5.284;2023-02-27T19:26:03;98878.88;;;6.28
60615;BMP280;46444;45.590;5.284;2023-02-27T19:28:32;98881.97;;;6.05
60615;BMP280;46444;45.590;5.284;2023-02-27T19:31:24;98879.72;;;6.02
60615;BMP280;46444;45.590;5.284;2023-02-27T19:33:53;98885.00;;;5.83
60615;BMP280;46444;45.590;5.284;2023-02-27T19:36:24;98887.81;;;5.68
60615;BMP280;46444;45.590;5.284;2023-02-27T19:38:54;98871.91;;;5.68
60615;BMP280;46444;45.590;5.284;2023-02-27T19:41:21;98876.84;;;5.78
60615;BMP280;46444;45.590;5.284;2023-02-27T19:43:49;98879.50;;;5.84
60615;BMP280;46444;45.590;5.284;2023-02-27T19:46:19;98883.53;;;5.67
60615;BMP280;46444;45.590;5.284;2023-02-27T19:48:49;98884.59;;;5.60
60615;BMP280;46444;45.590;5.284;2023-02-27T19:51:18;98876.41;;;5.48
60615;BMP280;46444;45.590;5.284;2023-02-27T19:53:50;98887.41;;;5.45
60615;BMP280;46444;45.590;5.284;2023-02-27T19:56:23;98894.75;;;5.56
60615;BMP280;46444;45.590;5.284;2023-02-27T19:58:52;98890.88;;;5.39
60615;BMP280;46444;45.590;5.284;2023-02-27T20:01:47;98896.78;;;5.41
60615;BMP280;46444;45.590;5.284;2023-02-27T20:04:14;98895.53;;;5.37
60615;BMP280;46444;45.590;5.284;2023-02-27T20:06:47;98900.44;;;5.27
60615;BMP280;46444;45.590;5.284;2023-02-27T20:09:17;98903.63;;;5.10
60615;BMP280;46444;45.590;5.284;2023-02-27T20:11:45;98910.38;;;5.19
60615;BMP280;46444;45.590;5.284;2023-02-27T20:14:14;98916.13;;;5.35
60615;BMP280;46444;45.590;5.284;2023-02-27T20:16:43;98911.41;;;5.18
60615;BMP280;46444;45.590;5.284;2023-02-27T20:19:14;98913.69;;;4.80
60615;BMP280;46444;45.590;5.284;2023-02-27T20:21:42;98908.91;;;5.03
60615;BMP280;46444;45.590;5.284;2023-02-27T20:24:17;98916.63;;;4.98
60615;BMP280;46444;45.590;5.284;2023-02-27T20:26:45;98919.28;;;4.98
60615;BMP280;46444;45.590;5.284;2023-02-27T20:29:20;98925.19;;;5.00
60615;BMP280;46444;45.590;5.284;2023-02-27T20:31:51;98923.59;;;5.12
60615;BMP280;46444;45.590;5.284;2023-02-27T20:34:19;98926.84;;;5.14
60615;BMP280;46444;45.590;5.284;2023-02-27T20:36:54;98929.22;;;4.96
60615;BMP280;46444;45.590;5.284;2023-02-27T20:39:23;98930.47;;;5.00
60615;BMP280;46444;45.590;5.284;2023-02-27T20:41:49;98936.75;;;4.86
60615;BMP280;46444;45.590;5.284;2023-02-27T20:44:15;98925.00;;;5.02
60615;BMP280;46444;45.590;5.284;2023-02-27T20:46:42;98936.97;;;4.98
60615;BMP280;46444;45.590;5.284;2023-02-27T20:49:10;98935.25;;;4.77
60615;BMP280;46444;45.590;5.284;2023-02-27T20:51:39;98943.78;;;4.73
60615;BMP280;46444;45.590;5.284;2023-02-27T20:54:16;98937.31;;;4.82
60615;BMP280;46444;45.590;5.284;2023-02-27T20:56:47;98945.09;;;4.90
60615;BMP280;46444;45.590;5.284;2023-02-27T20:59:16;98949.91;;;4.73
60615;BMP280;46444;45.590;5.284;2023-02-27T21:01:45;98943.38;;;4.69
60615;BMP280;46444;45.590;5.284;2023-02-27T21:04:26;98946.75;;;4.57
60615;BMP280;46444;45.590;5.284;2023-02-27T21:07:11;98952.00;;;4.50
60615;BMP280;46444;45.590;5.284;2023-02-27T21:09:38;98943.06;;;4.51
60615;BMP280;46444;45.590;5.284;2023-02-27T21:12:16;98955.22;;;4.46
60615;BMP280;46444;45.590;5.284;2023-02-27T21:14:42;98953.47;;;4.59
60615;BMP280;46444;45.590;5.284;2023-02-27T21:17:24;98959.09;;;4.77
60615;BMP280;46444;45.590;5.284;2023-02-27T21:19:50;98962.06;;;4.61
60615;BMP280;46444;45.590;5.284;2023-02-27T21:22:16;98962.50;;;4.71
60615;BMP280;46444;45.590;5.284;2023-02-27T21:24:42;98954.31;;;4.60
60615;BMP280;46444;45.590;5.284;2023-02-27T21:27:07;98960.41;;;4.60
60615;BMP280;46444;45.590;5.284;2023-02-27T21:29:33;98950.22;;;4.57
60615;BMP280;46444;45.590;5.284;2023-02-27T21:31:58;98960.50;;;4.73
60615;BMP280;46444;45.590;5.284;2023-02-27T21:34:26;98953.56;;;4.72
60615;BMP280;46444;45.590;5.284;2023-02-27T21:36:52;98957.63;;;4.68
60615;BMP280;46444;45.590;5.284;2023-02-27T21:39:21;98943.91;;;4.58
60615;BMP280;46444;45.590;5.284;2023-02-27T21:41:48;98961.88;;;4.35
60615;BMP280;46444;45.590;5.284;2023-02-27T21:44:16;98962.00;;;4.55
60615;BMP280;46444;45.590;5.284;2023-02-27T21:46:42;98952.28;;;4.62
60615;BMP280;46444;45.590;5.284;2023-02-27T21:49:14;98952.03;;;4.57
60615;BMP280;46444;45.590;5.284;2023-02-27T21:51:41;98960.63;;;4.65
60615;BMP280;46444;45.590;5.284;2023-02-27T21:54:12;98968.34;;;4.33
60615;BMP280;46444;45.590;5.284;2023-02-27T21:56:39;98966.56;;;4.40
60615;BMP280;46444;45.590;5.284;2023-02-27T21:59:12;98965.59;;;4.41
60615;BMP280;46444;45.590;5.284;2023-02-27T22:01:40;98969.81;;;4.35
60615;BMP280;46444;45.590;5.284;2023-02-27T22:04:07;98968.53;;;4.31
60615;BMP280;46444;45.590;5.284;2023-02-27T22:06:34;98972.53;;;4.48
60615;BMP280;46444;45.590;5.284;2023-02-27T22:09:04;98972.09;;;4.17
60615;BMP280;46444;45.590;5.284;2023-02-27T22:11:31;98963.59;;;4.22
60615;BMP280;46444;45.590;5.284;2023-02-27T22:13:58;98969.44;;;4.38
60615;BMP280;46444;45.590;5.284;2023-02-27T22:16:23;98970.81;;;4.34
60615;BMP280;46444;45.590;5.284;2023-02-27T22:18:50;98982.66;;;4.38
60615;BMP280;46444;45.590;5.284;2023-02-27T22:21:20;98979.81;;;4.40
60615;BMP280;46444;45.590;5.284;2023-02-27T22:23:47;98977.03;;;4.20
60615;BMP280;46444;45.590;5.284;2023-02-27T22:26:16;98981.13;;;4.23
60615;BMP280;46444;45.590;5.284;2023-02-27T22:28:47;98982.44;;;4.12
60615;BMP280;46444;45.590;5.284;2023-02-27T22:31:24;98980.31;;;4.01
60615;BMP280;46444;45.590;5.284;2023-02-27T22:33:54;98987.28;;;4.09
60615;BMP280;46444;45.590;5.284;2023-02-27T22:36:23;99001.41;;;3.95
60615;BMP280;46444;45.590;5.284;2023-02-27T22:38:49;98996.94;;;3.95
60615;BMP280;46444;45.590;5.284;2023-02-27T22:41:27;98995.56;;;3.99
60615;BMP280;46444;45.590;5.284;2023-02-27T22:43:54;98994.88;;;3.91
60615;BMP280;46444;45.590;5.284;2023-02-27T22:46:50;98997.22;;;3.79
60615;BMP280;46444;45.590;5.284;2023-02-27T22:49:22;99001.47;;;3.80
60615;BMP280;46444;45.590;5.284;2023-02-27T22:51:49;98996.31;;;3.72
60615;BMP280;46444;45.590;5.284;2023-02-27T22:54:16;98985.97;;;3.77
60615;BMP280;46444;45.590;5.284;2023-02-27T22:56:48;98993.28;;;3.75
60615;BMP280;46444;45.590;5.284;2023-02-27T22:59:13;98994.22;;;3.68
60615;BMP280;46444;45.590;5.284;2023-02-27T23:01:40;98992.16;;;3.63
60615;BMP280;46444;45.590;5.284;2023-02-27T23:04:07;98987.69;;;3.64
60615;BMP280;46444;45.590;5.284;2023-02-27T23:06:35;98986.59;;;3.58
60615;BMP280;46444;45.590;5.284;2023-02-27T23:09:06;98984.84;;;3.65
60615;BMP280;46444;45.590;5.284;2023-02-27T23:11:32;98987.25;;;3.60
60615;BMP280;46444;45.590;5.284;2023-02-27T23:14:00;98987.25;;;3.60
60615;BMP280;46444;45.590;5.284;2023-02-27T23:16:28;98989.63;;;3.55
60615;BMP280;46444;45.590;5.284;2023-02-27T23:18:55;98988.75;;;3.48
60615;BMP280;46444;45.590;5.284;2023-02-27T23:21:29;98988.38;;;3.51
60615;BMP280;46444;45.590;5.284;2023-02-27T23:24:06;98993.47;;;3.53
60615;BMP280;46444;45.590;5.284;2023-02-27T23:26:38;99006.03;;;3.51
60615;BMP280;46444;45.590;5.284;2023-02-27T23:29:04;98998.50;;;3.48
60615;BMP280;46444;45.590;5.284;2023-02-27T23:31:33;99000.56;;;3.52
60615;BMP280;46444;45.590;5.284;2023-02-27T23:33:58;98990.56;;;3.48
60615;BMP280;46444;45.590;5.284;2023-02-27T23:36:24;98995.97;;;3.40
60615;BMP280;46444;45.590;5.284;2023-02-27T23:38:54;98990.44;;;3.56
60615;BMP280;46444;45.590;5.284;2023-02-27T23:41:19;98998.84;;;3.45
60615;BMP280;46444;45.590;5.284;2023-02-27T23:43:46;98997.97;;;3.38
60615;BMP280;46444;45.590;5.284;2023-02-27T23:46:14;99003.53;;;3.28
60615;BMP280;46444;45.590;5.284;2023-02-27T23:48:42;98999.41;;;3.40
60615;BMP280;46444;45.590;5.284;2023-02-27T23:51:09;99001.25;;;3.40
60615;BMP280;46444;45.590;5.284;2023-02-27T23:53:37;99012.56;;;3.34
60615;BMP280;46444;45.590;5.284;2023-02-27T23:56:22;99006.75;;;3.24
60615;BMP280;46444;45.590;5.284;2023-02-27T23:58:57;99015.28;;;3.26
